Time;durP1;ratioP1;P1;durP2;ratioP2;P2;SDS_P1;SDS_P2;PMS_P1;PMS_P2;Temp;Humidity;BMP_temperature;BMP_pressure;BME280_temperature;BME280_humidity;BME280_pressure;Samples;Min_cycle;Max_cycle;Signal;HPM_P1;HPM_P2
2021/10/03 00:01:02;;;;;;;41.20;21.52;;;;;;;8.67;65.00;98701.59;4950472;29;20039;-69
2021/10/03 00:03:29;;;;;;;41.78;23.55;;;;;;;8.65;65.23;98696.41;4951974;29;20074;-69
2021/10/03 00:05:58;;;;;;;44.45;22.73;;;;;;;8.64;65.55;98694.75;4951522;29;20027;-69
2021/10/03 00:08:26;;;;;;;43.58;23.30;;;;;;;8.64;66.21;98697.50;4951546;29;20102;-69
2021/10/03 00:10:53;;;;;;;39.22;21.42;;;;;;;8.66;65.77;98694.50;4932384;29;20033;-69
2021/10/03 00:13:20;;;;;;;40.17;22.73;;;;;;;8.67;65.75;98693.41;4952301;29;20031;-69
2021/10/03 00:15:45;;;;;;;49.38;25.55;;;;;;;8.67;66.32;98688.75;4953437;29;20046;-69
2021/10/03 00:18:12;;;;;;;44.88;25.02;;;;;;;8.71;65.13;98686.28;4933146;29;20491;-68
2021/10/03 00:20:38;;;;;;;40.42;23.27;;;;;;;8.73;66.08;98684.91;4952127;29;20031;-68
2021/10/03 00:23:04;;;;;;;36.83;21.13;;;;;;;8.76;66.24;98686.28;4935586;29;20032;-69
2021/10/03 00:25:30;;;;;;;35.97;19.00;;;;;;;8.82;66.21;98678.84;4952159;29;20027;-68
2021/10/03 00:27:56;;;;;;;31.02;16.42;;;;;;;8.86;66.55;98680.75;4952459;29;20545;-68
2021/10/03 00:30:23;;;;;;;27.60;15.82;;;;;;;8.90;66.14;98679.09;4950837;29;20015;-68
2021/10/03 00:32:49;;;;;;;30.55;16.42;;;;;;;8.95;66.31;98672.81;4951293;29;20047;-69
2021/10/03 00:35:15;;;;;;;25.30;14.45;;;;;;;8.98;65.62;98672.22;4949533;29;20037;-69
2021/10/03 00:37:40;;;;;;;31.67;16.25;;;;;;;8.97;66.03;98676.03;4951351;29;20388;-68
2021/10/03 00:40:07;;;;;;;29.67;16.52;;;;;;;8.89;65.51;98666.50;4951398;29;20383;-69
2021/10/03 00:42:32;;;;;;;35.33;19.88;;;;;;;8.85;66.15;98673.63;4949820;29;20077;-69
2021/10/03 00:44:58;;;;;;;43.97;22.70;;;;;;;8.85;65.57;98667.38;4950490;28;20480;-69
2021/10/03 00:47:23;;;;;;;38.65;20.45;;;;;;;8.82;65.23;98670.66;4951647;29;20066;-69
2021/10/03 00:49:49;;;;;;;30.92;17.10;;;;;;;8.81;65.62;98671.75;4949298;29;20024;-69
2021/10/03 00:52:15;;;;;;;27.95;16.08;;;;;;;8.76;66.05;98676.13;4951039;29;20031;-69
2021/10/03 00:54:40;;;;;;;28.67;14.93;;;;;;;8.74;65.63;98674.78;4951503;29;20098;-69
2021/10/03 00:57:06;;;;;;;28.23;17.25;;;;;;;8.71;65.67;98672.63;4951357;29;20033;-68
2021/10/03 00:59:33;;;;;;;26.95;14.05;;;;;;;8.65;65.84;98669.06;4947708;29;20030;-69
2021/10/03 01:01:59;;;;;;;26.42;14.23;;;;;;;8.61;65.67;98666.06;4950450;29;20031;-68
2021/10/03 01:04:25;;;;;;;21.42;13.32;;;;;;;8.55;66.08;98664.44;4949311;29;20027;-69
2021/10/03 01:06:51;;;;;;;22.88;13.50;;;;;;;8.49;66.28;98660.91;4951281;29;20451;-69
2021/10/03 01:09:18;;;;;;;26.67;15.48;;;;;;;8.49;66.33;98663.66;4950499;29;20773;-68
2021/10/03 01:11:44;;;;;;;28.20;16.63;;;;;;;8.38;65.96;98650.25;4945495;29;20027;-69
2021/10/03 01:14:10;;;;;;;26.88;17.20;;;;;;;8.30;66.01;98648.91;4949883;29;20035;-69
2021/10/03 01:16:35;;;;;;;31.60;18.55;;;;;;;8.26;66.33;98656.84;4949634;29;20034;-69
2021/10/03 01:19:01;;;;;;;34.88;19.70;;;;;;;8.26;66.61;98645.91;4947593;29;20050;-69
2021/10/03 01:21:26;;;;;;;32.15;19.40;;;;;;;8.27;66.39;98647.53;4949639;29;20061;-69
2021/10/03 01:23:54;;;;;;;39.10;20.52;;;;;;;8.24;66.35;98644.53;4950571;29;20479;-72
2021/10/03 01:26:20;;;;;;;36.53;19.95;;;;;;;8.22;66.21;98644.81;4933258;29;20019;-69
2021/10/03 01:28:45;;;;;;;34.55;19.65;;;;;;;8.18;66.41;98641.81;4950592;29;20119;-68
2021/10/03 01:31:11;;;;;;;33.97;19.85;;;;;;;8.10;66.30;98644.28;4950397;29;20074;-69
2021/10/03 01:33:38;;;;;;;36.05;20.02;;;;;;;8.01;66.09;98639.38;4943724;29;20106;-69
2021/10/03 01:36:06;;;;;;;36.67;20.73;;;;;;;7.98;66.19;98642.66;4950647;29;20563;-69
2021/10/03 01:38:33;;;;;;;37.08;20.45;;;;;;;7.90;66.50;98632.31;4950789;29;20110;-69
2021/10/03 01:40:59;;;;;;;35.80;19.77;;;;;;;7.86;66.61;98626.56;4949711;29;20035;-69
2021/10/03 01:43:25;;;;;;;40.40;20.38;;;;;;;7.81;66.50;98617.56;4950502;29;20031;-69
2021/10/03 01:45:51;;;;;;;36.45;19.40;;;;;;;7.76;66.52;98618.38;4950866;29;20027;-69
2021/10/03 01:48:20;;;;;;;38.35;21.77;;;;;;;7.71;66.15;98618.38;4931052;29;20023;-69
2021/10/03 01:50:50;;;;;;;40.23;21.23;;;;;;;7.69;66.58;98624.09;4947812;29;20042;-69
2021/10/03 01:53:35;;;;;;;;;;;;;;;7.63;66.57;98624.38;4951574;29;20547;-69
2021/10/03 01:56:03;;;;;;;35.90;19.80;;;;;;;7.53;66.54;98628.75;4950341;28;19914;-70
2021/10/03 01:58:33;;;;;;;38.85;21.02;;;;;;;7.44;66.99;98620.28;4949880;29;20051;-69
2021/10/03 02:01:04;;;;;;;38.92;20.42;;;;;;;7.40;67.18;98619.19;4948307;29;20054;-69
2021/10/03 02:03:30;;;;;;;39.22;20.80;;;;;;;7.37;66.84;98625.19;4949677;29;20082;-70
2021/10/03 02:05:55;;;;;;;40.58;20.83;;;;;;;7.34;66.96;98614.81;4950465;29;20019;-69
2021/10/03 02:08:21;;;;;;;38.47;20.77;;;;;;;7.33;67.49;98612.38;4950191;29;20046;-68
2021/10/03 02:10:49;;;;;;;37.67;20.33;;;;;;;7.32;67.53;98613.47;4949723;29;20015;-69
2021/10/03 02:13:15;;;;;;;35.17;20.35;;;;;;;7.31;66.97;98615.34;4951116;29;20027;-68
2021/10/03 02:15:43;;;;;;;37.53;20.83;;;;;;;7.28;67.21;98616.72;4950820;29;20031;-69
2021/10/03 02:18:11;;;;;;;35.30;18.52;;;;;;;7.26;67.51;98621.63;4947008;29;20538;-69
2021/10/03 02:20:37;;;;;;;36.60;18.63;;;;;;;7.27;67.37;98606.91;4949745;29;20052;-68
2021/10/03 02:23:05;;;;;;;35.78;19.33;;;;;;;7.25;67.36;98600.06;4950738;29;20543;-70
2021/10/03 02:25:31;;;;;;;34.67;19.42;;;;;;;7.22;67.45;98597.88;4950432;29;20028;-69
2021/10/03 02:27:57;;;;;;;33.22;19.38;;;;;;;7.19;66.91;98592.97;4948690;29;20058;-69
2021/10/03 02:30:23;;;;;;;32.63;18.77;;;;;;;7.18;67.65;98604.94;4948091;29;20503;-68
2021/10/03 02:32:48;;;;;;;34.75;19.90;;;;;;;7.18;67.96;98597.59;4948510;29;20051;-66
2021/10/03 02:35:14;;;;;;;35.72;19.63;;;;;;;7.19;67.55;98601.13;4950026;29;20024;-68
2021/10/03 02:37:41;;;;;;;37.45;20.08;;;;;;;7.21;67.68;98605.25;4946456;29;20054;-68
2021/10/03 02:40:10;;;;;;;35.58;18.67;;;;;;;7.19;67.70;98598.41;4947913;29;20043;-69
2021/10/03 02:42:36;;;;;;;34.38;19.15;;;;;;;7.15;67.86;98596.22;4948686;29;20043;-69
2021/10/03 02:45:03;;;;;;;31.83;17.58;;;;;;;7.13;67.89;98605.78;4950793;29;20538;-69
2021/10/03 02:47:28;;;;;;;30.63;17.50;;;;;;;7.13;67.82;98605.78;4948912;29;20142;-69
2021/10/03 02:49:54;;;;;;;29.25;16.48;;;;;;;7.14;68.04;98602.75;4949300;29;20106;-69
2021/10/03 02:52:19;;;;;;;29.75;16.33;;;;;;;7.14;68.25;98602.75;4948482;29;20059;-69
2021/10/03 02:54:45;;;;;;;28.67;16.08;;;;;;;7.15;67.96;98606.31;4950237;29;20035;-68
2021/10/03 02:57:10;;;;;;;28.52;16.08;;;;;;;7.11;68.03;98600.59;4950402;29;20031;-69
2021/10/03 02:59:36;;;;;;;30.42;17.05;;;;;;;7.11;68.25;98600.59;4949952;29;20038;-69
2021/10/03 03:02:02;;;;;;;25.35;15.15;;;;;;;7.14;68.18;98601.97;4930854;29;20035;-69
2021/10/03 03:04:28;;;;;;;29.73;15.70;;;;;;;7.14;68.61;98589.13;4949676;29;20038;-69
2021/10/03 03:06:53;;;;;;;28.13;15.55;;;;;;;7.15;68.06;98590.75;4950116;29;20484;-69
2021/10/03 03:09:19;;;;;;;27.35;15.73;;;;;;;7.13;67.94;98592.94;4952195;28;20043;-69
2021/10/03 03:11:44;;;;;;;28.67;15.07;;;;;;;7.18;68.37;98596.78;4953295;29;20023;-69
2021/10/03 03:14:11;;;;;;;23.67;14.60;;;;;;;7.18;68.19;98588.59;4953548;29;20479;-69
2021/10/03 03:16:51;;;;;;;25.33;15.63;;;;;;;7.21;68.31;98588.06;4952833;29;20019;-69
2021/10/03 03:19:17;;;;;;;24.85;15.35;;;;;;;7.22;68.27;98587.78;4952762;29;20031;-69
2021/10/03 03:21:42;;;;;;;25.70;15.30;;;;;;;7.23;68.30;98591.31;4952235;29;20544;-68
2021/10/03 03:24:10;;;;;;;26.02;14.95;;;;;;;7.22;68.75;98579.59;4953255;29;20037;-69
2021/10/03 03:26:36;;;;;;;25.27;15.52;;;;;;;7.23;68.20;98578.53;4953080;29;20464;-68
2021/10/03 03:29:02;;;;;;;26.15;15.38;;;;;;;7.22;68.53;98579.59;4950156;29;20039;-69
2021/10/03 03:31:28;;;;;;;27.70;16.52;;;;;;;7.21;68.43;98583.44;4952663;29;20031;-68
2021/10/03 03:33:54;;;;;;;27.23;15.82;;;;;;;7.20;68.22;98583.69;4953080;29;20045;-69
2021/10/03 03:36:19;;;;;;;28.83;16.17;;;;;;;7.18;68.59;98583.97;4935453;29;20035;-69
2021/10/03 03:38:46;;;;;;;28.67;16.05;;;;;;;7.18;68.45;98578.50;4933992;29;20031;-68
2021/10/03 03:41:13;;;;;;;30.58;15.85;;;;;;;7.14;68.07;98577.41;4952566;29;20062;-68
2021/10/03 03:43:40;;;;;;;27.50;15.98;;;;;;;7.14;68.38;98571.97;4953069;29;20400;-69
2021/10/03 03:46:06;;;;;;;30.05;17.25;;;;;;;7.10;68.27;98588.06;4952720;29;20035;-69
2021/10/03 03:48:31;;;;;;;30.30;17.10;;;;;;;7.07;68.03;98594.03;4952908;29;20031;-68
2021/10/03 03:50:57;;;;;;;30.00;16.38;;;;;;;7.00;68.15;98588.84;4951024;29;21579;-70
2021/10/03 03:53:22;;;;;;;28.20;17.30;;;;;;;6.95;67.96;98594.28;4952560;29;20034;-69
2021/10/03 03:55:48;;;;;;;30.45;16.88;;;;;;;6.91;68.03;98593.19;4952787;29;20077;-69
2021/10/03 03:58:13;;;;;;;29.73;16.38;;;;;;;6.87;68.25;98581.19;4953679;29;20022;-69
2021/10/03 04:00:38;;;;;;;28.80;16.70;;;;;;;6.85;68.03;98580.63;4954003;29;20066;-69
2021/10/03 04:03:04;;;;;;;31.40;17.13;;;;;;;6.82;68.21;98583.91;4953216;29;20106;-69
2021/10/03 04:05:31;;;;;;;26.63;16.88;;;;;;;6.80;68.09;98588.78;4951185;29;20020;-69
2021/10/03 04:07:56;;;;;;;30.23;17.75;;;;;;;6.74;68.11;98582.50;4935041;29;20027;-69
2021/10/03 04:10:22;;;;;;;32.20;18.02;;;;;;;6.70;68.21;98582.22;4952199;29;20158;-69
2021/10/03 04:12:47;;;;;;;27.33;16.73;;;;;;;6.66;68.08;98583.03;4934006;29;20023;-69
2021/10/03 04:15:13;;;;;;;29.40;16.20;;;;;;;6.61;68.05;98580.28;4952075;29;20019;-69
2021/10/03 04:17:39;;;;;;;29.95;16.50;;;;;;;6.56;67.99;98589.25;4949351;29;20042;-68
2021/10/03 04:20:05;;;;;;;30.42;16.70;;;;;;;6.52;68.20;98578.06;4950381;28;20031;-69
2021/10/03 04:22:31;;;;;;;27.13;16.33;;;;;;;6.50;68.25;98580.25;4951739;29;20071;-69
2021/10/03 04:24:57;;;;;;;27.98;16.65;;;;;;;6.47;68.23;98580.78;4951833;29;20058;-69
2021/10/03 04:27:23;;;;;;;26.80;16.73;;;;;;;6.45;68.17;98591.13;4951936;29;20170;-69
2021/10/03 04:29:48;;;;;;;27.63;16.92;;;;;;;6.42;68.30;98586.19;4951801;29;20539;-69
2021/10/03 04:32:14;;;;;;;28.85;15.95;;;;;;;6.38;68.17;98585.91;4951787;29;20023;-69
2021/10/03 04:34:39;;;;;;;25.98;16.10;;;;;;;6.34;68.75;98586.69;4951997;29;20481;-69
2021/10/03 04:37:05;;;;;;;25.05;15.50;;;;;;;6.33;68.77;98583.16;4952089;29;21395;-69
2021/10/03 04:39:32;;;;;;;28.38;16.10;;;;;;;6.35;68.39;98583.72;4952077;29;20024;-69
2021/10/03 04:41:58;;;;;;;25.55;15.90;;;;;;;6.40;68.81;98586.47;4932255;29;20031;-69
2021/10/03 04:44:23;;;;;;;28.05;15.82;;;;;;;6.46;69.11;98586.50;4951730;29;20126;-69
2021/10/03 04:46:49;;;;;;;21.98;13.38;;;;;;;6.53;68.98;98590.59;4951555;29;20031;-69
2021/10/03 04:49:14;;;;;;;23.95;13.10;;;;;;;6.62;69.37;98579.19;4949516;29;20482;-68
2021/10/03 04:51:39;;;;;;;22.20;12.73;;;;;;;6.70;68.99;98579.50;4951396;29;20023;-68
2021/10/03 04:54:05;;;;;;;20.25;11.82;;;;;;;6.78;69.06;98575.41;4951042;29;20034;-69
2021/10/03 04:56:30;;;;;;;18.08;11.48;;;;;;;6.84;69.12;98579.00;4951542;29;20035;-69
2021/10/03 04:58:57;;;;;;;21.70;11.93;;;;;;;6.88;69.20;98577.38;4951687;29;20388;-69
2021/10/03 05:01:22;;;;;;;20.08;11.73;;;;;;;6.94;68.98;98578.19;4951316;29;20504;-69
2021/10/03 05:03:48;;;;;;;22.67;11.95;;;;;;;6.96;68.98;98574.09;4950208;29;20038;-69
2021/10/03 05:06:13;;;;;;;18.00;11.65;;;;;;;6.98;69.11;98569.19;4951320;29;20027;-69
2021/10/03 05:08:38;;;;;;;25.90;13.80;;;;;;;7.00;68.81;98568.94;4950116;29;20416;-69
2021/10/03 05:11:05;;;;;;;21.42;12.57;;;;;;;7.06;69.27;98572.47;4951189;29;20391;-69
2021/10/03 05:13:31;;;;;;;22.25;12.30;;;;;;;7.12;69.12;98568.69;4951038;29;20114;-69
2021/10/03 05:15:57;;;;;;;19.60;11.93;;;;;;;7.19;69.08;98571.97;4934213;29;20081;-70
2021/10/03 05:18:23;;;;;;;22.85;11.98;;;;;;;7.27;69.37;98565.16;4950560;29;20083;-69
2021/10/03 05:20:49;;;;;;;23.95;15.70;;;;;;;7.37;69.42;98561.59;4950984;29;20027;-69
2021/10/03 05:23:14;;;;;;;28.83;17.40;;;;;;;7.48;69.35;98555.06;4946975;29;20727;-69
2021/10/03 05:25:40;;;;;;;23.40;16.35;;;;;;;7.60;69.20;98552.88;4950914;29;20399;-69
2021/10/03 05:28:05;;;;;;;22.85;15.45;;;;;;;7.68;69.51;98551.50;4950617;29;20404;-69
2021/10/03 05:30:31;;;;;;;23.05;16.25;;;;;;;7.78;69.55;98547.13;4950926;28;20019;-69
2021/10/03 05:32:57;;;;;;;24.67;17.38;;;;;;;7.90;69.54;98542.19;4948200;29;20027;-69
2021/10/03 05:35:22;;;;;;;23.67;15.57;;;;;;;8.02;69.73;98542.69;4951026;29;20590;-69
2021/10/03 05:37:48;;;;;;;18.77;12.50;;;;;;;8.12;69.54;98547.31;4949493;29;20024;-69
2021/10/03 05:40:14;;;;;;;20.25;11.82;;;;;;;8.23;69.22;98545.38;4948768;29;20050;-69
2021/10/03 05:42:40;;;;;;;19.25;11.15;;;;;;;8.34;69.81;98541.50;4933224;29;20484;-69
2021/10/03 05:45:06;;;;;;;15.38;10.75;;;;;;;8.47;69.44;98541.97;4950305;29;20031;-69
2021/10/03 05:47:32;;;;;;;17.05;10.82;;;;;;;8.58;69.62;98535.41;4949091;29;20465;-70
2021/10/03 05:49:58;;;;;;;16.40;11.40;;;;;;;8.70;69.71;98539.72;4950419;29;20062;-69
2021/10/03 05:52:23;;;;;;;15.27;10.18;;;;;;;8.82;69.38;98536.66;4950470;29;20023;-69
2021/10/03 05:54:49;;;;;;;19.30;10.98;;;;;;;8.93;69.72;98540.97;4950691;29;20023;-69
2021/10/03 05:57:14;;;;;;;17.65;10.77;;;;;;;9.05;70.30;98535.94;4948492;29;20102;-69
2021/10/03 05:59:40;;;;;;;17.15;10.80;;;;;;;9.18;69.62;98547.34;4950224;29;20039;-69
2021/10/03 06:02:05;;;;;;;18.67;9.95;;;;;;;9.29;70.08;98546.19;4951914;29;20042;-69
2021/10/03 06:04:31;;;;;;;14.57;9.60;;;;;;;9.42;70.00;98549.34;4952574;29;20035;-70
2021/10/03 06:06:57;;;;;;;14.93;9.43;;;;;;;9.54;69.80;98547.06;4951228;29;20134;-69
2021/10/03 06:09:23;;;;;;;14.15;9.52;;;;;;;9.67;69.60;98545.56;4949198;29;20404;-69
2021/10/03 06:11:48;;;;;;;15.10;9.15;;;;;;;9.79;69.59;98545.19;4950755;29;20043;-70
2021/10/03 06:14:14;;;;;;;15.07;8.93;;;;;;;9.92;68.97;98546.44;4952319;29;20484;-70
2021/10/03 06:16:42;;;;;;;14.60;8.23;;;;;;;10.05;69.46;98545.75;4952921;29;20047;-70
2021/10/03 06:19:09;;;;;;;12.73;8.15;;;;;;;10.18;69.49;98546.16;4952592;29;20061;-69
2021/10/03 06:21:34;;;;;;;12.23;8.95;;;;;;;10.31;69.35;98556.44;4951884;29;20067;-70
2021/10/03 06:24:00;;;;;;;13.65;9.27;;;;;;;10.41;69.06;98547.28;4951153;29;20118;-70
2021/10/03 06:26:25;;;;;;;14.35;8.73;;;;;;;10.49;68.93;98548.56;4952528;29;20376;-70
2021/10/03 06:28:50;;;;;;;13.48;8.70;;;;;;;10.59;69.08;98548.44;4952333;29;20492;-70
2021/10/03 06:31:16;;;;;;;13.13;8.40;;;;;;;10.68;68.73;98541.19;4951940;29;20023;-70
2021/10/03 06:33:41;;;;;;;13.05;8.32;;;;;;;10.79;68.86;98549.28;4951852;29;20023;-69
2021/10/03 06:36:07;;;;;;;15.50;9.60;;;;;;;10.87;68.80;98552.19;4951996;29;20632;-70
2021/10/03 06:38:33;;;;;;;13.07;9.18;;;;;;;10.95;68.32;98549.88;4952186;29;20035;-70
2021/10/03 06:40:59;;;;;;;14.15;9.30;;;;;;;11.02;68.42;98544.81;4950896;29;20178;-70
2021/10/03 06:43:24;;;;;;;15.30;10.43;;;;;;;11.12;68.41;98541.94;4918339;29;20500;-70
2021/10/03 06:45:50;;;;;;;15.35;10.98;;;;;;;11.22;68.97;98549.19;4956168;29;20537;-71
2021/10/03 06:48:15;;;;;;;15.98;10.32;;;;;;;11.32;68.17;98534.50;4956162;29;20023;-70
2021/10/03 06:50:40;;;;;;;16.75;10.18;;;;;;;11.43;68.51;98540.63;4952315;29;20031;-70
2021/10/03 06:53:06;;;;;;;16.08;10.00;;;;;;;11.53;68.28;98531.41;4954811;29;20114;-70
2021/10/03 06:55:31;;;;;;;13.43;9.65;;;;;;;11.61;68.76;98537.00;4955828;29;20027;-70
2021/10/03 06:57:59;;;;;;;16.83;10.48;;;;;;;11.71;68.24;98533.28;4955901;29;20027;-70
2021/10/03 07:00:25;;;;;;;18.20;10.80;;;;;;;11.79;67.78;98537.28;4935703;29;20042;-70
2021/10/03 07:02:50;;;;;;;15.35;9.43;;;;;;;11.86;68.24;98540.44;4955677;29;20039;-70
2021/10/03 07:05:16;;;;;;;13.80;8.65;;;;;;;11.94;67.88;98540.88;4955737;29;20039;-69
2021/10/03 07:07:41;;;;;;;15.20;9.50;;;;;;;11.98;67.65;98541.88;4954039;29;20023;-70
2021/10/03 07:10:07;;;;;;;18.48;10.23;;;;;;;12.02;67.75;98534.69;4952271;29;20504;-70
2021/10/03 07:12:32;;;;;;;14.38;9.35;;;;;;;12.09;67.38;98537.84;4954871;29;20082;-70
2021/10/03 07:14:58;;;;;;;16.42;10.45;;;;;;;12.13;67.65;98540.81;4952183;29;20538;-69
2021/10/03 07:17:23;;;;;;;16.55;10.18;;;;;;;12.16;67.47;98543.75;4951270;29;20024;-68
2021/10/03 07:19:49;;;;;;;13.77;9.02;;;;;;;12.19;67.00;98537.66;4952618;29;20034;-69
2021/10/03 07:22:14;;;;;;;13.65;8.60;;;;;;;12.24;67.05;98549.66;4953587;29;20031;-69
2021/10/03 07:24:40;;;;;;;12.95;8.50;;;;;;;12.27;67.03;98535.31;4951466;29;20031;-69
2021/10/03 07:27:07;;;;;;;16.63;9.20;;;;;;;12.31;66.68;98539.09;4949497;29;20062;-69
2021/10/03 07:29:34;;;;;;;13.48;8.60;;;;;;;12.38;66.66;98535.91;4936926;29;20031;-69
2021/10/03 07:32:00;;;;;;;15.55;8.10;;;;;;;12.46;66.55;98530.50;4954410;29;20031;-69
2021/10/03 07:34:25;;;;;;;11.25;7.80;;;;;;;12.56;66.85;98526.75;4954790;29;20027;-69
2021/10/03 07:36:51;;;;;;;10.68;7.50;;;;;;;12.66;66.61;98534.75;4955289;29;20032;-70
2021/10/03 07:39:16;;;;;;;12.15;7.65;;;;;;;12.78;66.50;98527.91;4953588;29;20039;-70
2021/10/03 07:41:42;;;;;;;13.57;7.38;;;;;;;12.89;66.31;98534.00;4954575;29;20031;-70
2021/10/03 07:44:07;;;;;;;11.73;7.88;;;;;;;13.00;65.91;98540.91;4954055;29;20051;-70
2021/10/03 07:46:33;;;;;;;10.48;7.97;;;;;;;13.12;65.47;98534.84;4954195;29;20113;-71
2021/10/03 07:48:58;;;;;;;12.00;6.93;;;;;;;13.25;65.15;98525.72;4954758;29;20491;-70
2021/10/03 07:51:24;;;;;;;9.10;6.20;;;;;;;13.36;64.99;98519.97;4937755;29;20082;-70
2021/10/03 07:53:49;;;;;;;10.60;6.57;;;;;;;13.47;64.61;98531.59;4952448;28;20031;-70
2021/10/03 07:56:15;;;;;;;13.93;9.07;;;;;;;13.58;64.27;98521.13;4952601;29;20027;-70
2021/10/03 07:58:41;;;;;;;13.52;8.75;;;;;;;13.70;63.93;98522.16;4952809;29;20098;-69
2021/10/03 08:01:06;;;;;;;19.67;13.13;;;;;;;13.82;63.64;98520.75;4953584;29;20503;-69
2021/10/03 08:03:32;;;;;;;17.98;13.13;;;;;;;13.94;63.62;98520.16;4953902;29;20027;-70
2021/10/03 08:05:57;;;;;;;62.47;45.15;;;;;;;14.07;63.35;98512.94;4933652;29;20039;-70
2021/10/03 08:08:23;;;;;;;14.18;9.23;;;;;;;14.19;61.65;98521.41;4954014;29;20039;-70
2021/10/03 08:10:49;;;;;;;26.08;17.05;;;;;;;14.27;62.29;98520.63;4951762;29;20496;-71
2021/10/03 08:13:14;;;;;;;13.38;8.23;;;;;;;14.38;61.15;98520.34;4953348;28;20042;-72
2021/10/03 08:15:41;;;;;;;8.52;6.65;;;;;;;14.48;61.68;98522.78;4953559;29;20023;-71
2021/10/03 08:18:08;;;;;;;17.98;11.63;;;;;;;14.57;61.24;98511.81;4950255;29;20551;-72
2021/10/03 08:20:34;;;;;;;10.70;7.50;;;;;;;14.67;60.62;98511.47;4953634;29;20039;-73
2021/10/03 08:23:01;;;;;;;10.77;7.93;;;;;;;14.80;60.79;98514.44;4951034;29;20046;-73
2021/10/03 08:25:26;;;;;;;10.05;5.85;;;;;;;14.91;60.28;98512.19;4954789;29;20023;-72
2021/10/03 08:27:52;;;;;;;10.98;7.43;;;;;;;15.01;58.81;98503.59;4954690;29;20038;-73
2021/10/03 08:30:18;;;;;;;9.77;6.75;;;;;;;15.08;58.95;98492.88;4954319;29;20038;-71
2021/10/03 08:32:44;;;;;;;8.20;6.35;;;;;;;15.17;59.38;98496.44;4953729;29;20042;-71
2021/10/03 08:35:10;;;;;;;10.07;6.35;;;;;;;15.28;58.91;98491.38;4953783;29;20038;-71
2021/10/03 08:37:36;;;;;;;11.15;6.57;;;;;;;15.39;59.50;98482.78;4953747;29;20043;-72
2021/10/03 08:40:04;;;;;;;9.63;5.80;;;;;;;15.52;58.96;98486.47;4953291;29;20081;-71
2021/10/03 08:42:31;;;;;;;9.70;6.40;;;;;;;15.64;58.56;98481.09;4952518;29;20561;-72
2021/10/03 08:44:57;;;;;;;9.45;6.00;;;;;;;15.77;57.71;98479.25;4952965;29;20023;-71
2021/10/03 08:47:23;;;;;;;9.82;5.97;;;;;;;15.87;56.38;98478.09;4952995;29;20019;-71
2021/10/03 08:49:49;;;;;;;7.20;5.63;;;;;;;15.97;56.84;98471.38;4953956;29;20030;-70
2021/10/03 08:52:15;;;;;;;8.10;5.50;;;;;;;16.07;57.29;98474.63;4953030;29;20039;-71
2021/10/03 08:54:40;;;;;;;8.48;5.65;;;;;;;16.18;57.14;98466.75;4953005;29;20058;-71
2021/10/03 08:57:07;;;;;;;7.78;5.85;;;;;;;16.29;56.17;98474.69;4952131;29;20395;-70
2021/10/03 08:59:33;;;;;;;7.88;5.93;;;;;;;16.40;57.49;98467.59;4952535;29;20051;-71
2021/10/03 09:02:00;;;;;;;9.25;5.57;;;;;;;16.54;56.07;98474.84;4952297;29;20078;-70
2021/10/03 09:04:31;;;;;;;8.68;5.78;;;;;;;16.61;56.56;98475.91;4952336;29;20122;-69
2021/10/03 09:07:09;;;;;;;10.32;5.57;;;;;;;16.71;55.97;98482.22;4922041;29;20042;-70
2021/10/03 09:09:50;;;;;;;7.72;5.45;;;;;;;16.81;56.33;98476.28;4923032;29;20043;-70
2021/10/03 09:12:27;;;;;;;8.40;5.22;;;;;;;16.93;54.70;98472.75;4930514;29;21796;-70
2021/10/03 09:14:54;;;;;;;9.68;5.05;;;;;;;17.03;55.11;98469.63;4928393;29;20036;-70
2021/10/03 09:17:20;;;;;;;8.48;4.60;;;;;;;17.16;54.05;98464.13;4929376;29;20028;-70
2021/10/03 09:20:05;;;;;;;5.90;4.43;;;;;;;17.25;54.52;98471.22;4929387;29;20042;-70
2021/10/03 09:22:31;;;;;;;9.23;4.30;;;;;;;17.31;53.72;98477.34;4928411;29;20115;-69
2021/10/03 09:24:57;;;;;;;8.63;4.30;;;;;;;17.36;51.77;98468.00;4928896;28;20118;-69
2021/10/03 09:27:23;;;;;;;7.05;4.38;;;;;;;17.39;52.16;98464.53;4922761;29;20027;-69
2021/10/03 09:29:48;;;;;;;6.82;4.57;;;;;;;17.44;52.27;98466.31;4920714;29;20078;-69
2021/10/03 09:32:17;;;;;;;6.82;4.47;;;;;;;17.50;51.84;98473.25;4925262;29;20051;-69
2021/10/03 09:34:49;;;;;;;6.03;4.78;;;;;;;17.58;51.22;98464.00;4930518;29;20031;-69
2021/10/03 09:37:29;;;;;;;7.30;4.50;;;;;;;17.67;49.87;98453.66;4929949;29;20034;-70
2021/10/03 09:40:16;;;;;;;7.85;4.28;;;;;;;17.73;50.84;98451.44;4928676;29;20078;-70
2021/10/03 09:42:54;;;;;;;9.02;4.70;;;;;;;17.83;50.90;98445.47;4931132;29;20035;-70
2021/10/03 09:45:22;;;;;;;7.40;4.78;;;;;;;17.95;50.38;98452.19;4930264;29;20059;-70
2021/10/03 09:48:02;;;;;;;6.68;4.40;;;;;;;18.06;50.58;98447.00;4925391;29;20650;-71
2021/10/03 09:50:28;;;;;;;10.13;5.10;;;;;;;18.17;50.36;98442.63;4921754;29;20035;-70
2021/10/03 09:52:55;;;;;;;10.07;5.15;;;;;;;18.30;50.07;98454.53;4924190;29;20027;-70
2021/10/03 09:55:25;;;;;;;8.25;4.57;;;;;;;18.40;50.48;98447.69;4930319;29;20139;-71
2021/10/03 09:57:51;;;;;;;;;;;;;;;18.49;50.25;98439.25;4929983;29;20118;-70
2021/10/03 10:00:16;;;;;;;5.82;4.30;;;;;;;18.54;49.59;98445.34;4928470;29;19932;-70
2021/10/03 10:02:46;;;;;;;7.97;4.47;;;;;;;18.56;50.58;98448.59;4928568;29;20122;-71
2021/10/03 10:05:12;;;;;;;8.43;4.63;;;;;;;18.63;50.48;98449.97;4929595;29;20532;-70
2021/10/03 10:07:39;;;;;;;6.55;4.28;;;;;;;18.69;48.55;98441.03;4927907;29;20031;-70
2021/10/03 10:10:06;;;;;;;6.72;4.72;;;;;;;18.71;48.60;98443.47;4917969;29;20044;-70
2021/10/03 10:12:41;;;;;;;7.10;4.40;;;;;;;18.73;48.41;98436.41;4903468;29;20532;-70
2021/10/03 10:15:10;;;;;;;6.85;4.53;;;;;;;18.77;48.88;98432.91;4927053;29;20504;-70
2021/10/03 10:17:38;;;;;;;6.30;4.05;;;;;;;18.82;47.82;98433.47;4928777;29;20110;-70
2021/10/03 10:20:13;;;;;;;5.72;4.07;;;;;;;18.85;48.29;98423.63;4929340;29;20502;-70
2021/10/03 10:22:39;;;;;;;6.53;4.30;;;;;;;18.88;47.24;98426.50;4928377;29;20046;-71
2021/10/03 10:25:08;;;;;;;6.82;4.72;;;;;;;18.91;47.66;98430.56;4928554;29;20031;-70
2021/10/03 10:27:33;;;;;;;7.28;4.90;;;;;;;18.96;47.75;98427.53;4929239;29;20075;-72
2021/10/03 10:30:11;;;;;;;6.05;4.40;;;;;;;18.97;48.15;98425.59;4923982;29;20155;-71
2021/10/03 10:32:54;;;;;;;6.68;4.80;;;;;;;18.98;48.84;98432.75;4903936;29;20038;-72
2021/10/03 10:35:27;;;;;;;7.47;4.72;;;;;;;19.00;48.89;98425.69;4923748;29;20480;-70
2021/10/03 10:37:55;;;;;;;9.73;5.95;;;;;;;19.08;48.68;98423.09;4927981;29;20059;-71
2021/10/03 10:40:23;;;;;;;8.05;4.70;;;;;;;19.16;49.05;98428.50;4928656;29;20035;-71
2021/10/03 10:42:51;;;;;;;6.90;4.30;;;;;;;19.24;48.08;98425.91;4928237;29;20229;-71
2021/10/03 10:45:29;;;;;;;5.07;4.20;;;;;;;19.29;48.26;98426.50;4927413;29;20045;-72
2021/10/03 10:48:10;;;;;;;7.47;4.30;;;;;;;19.35;47.35;98415.91;4941546;29;20027;-71
2021/10/03 10:50:39;;;;;;;5.78;4.20;;;;;;;19.38;47.90;98398.50;4949503;29;20669;-70
2021/10/03 10:53:20;;;;;;;6.40;4.50;;;;;;;19.46;48.61;98400.31;4950403;29;20488;-71
2021/10/03 10:56:08;;;;;;;6.47;4.53;;;;;;;19.57;48.10;98386.69;4950835;29;20040;-69
2021/10/03 10:58:35;;;;;;;5.75;4.25;;;;;;;19.65;47.89;98384.88;4951781;29;20019;-70
2021/10/03 11:01:05;;;;;;;6.13;4.53;;;;;;;19.72;48.17;98390.63;4928288;29;20027;-69
2021/10/03 11:03:42;;;;;;;6.13;3.92;;;;;;;19.80;47.69;98386.03;4921546;29;20221;-71
2021/10/03 11:06:13;;;;;;;7.07;4.35;;;;;;;19.85;46.85;98382.19;4922889;29;20083;-70
2021/10/03 11:08:59;;;;;;;5.30;3.90;;;;;;;19.92;47.79;98377.63;4926319;28;20054;-70
2021/10/03 11:11:30;;;;;;;6.93;4.47;;;;;;;20.00;47.23;98383.38;4927139;28;20047;-69
2021/10/03 11:13:58;;;;;;;8.30;4.45;;;;;;;20.07;47.16;98375.19;4927797;29;20147;-70
2021/10/03 11:16:28;;;;;;;7.50;4.68;;;;;;;20.15;46.85;98365.84;4928000;29;20047;-69
2021/10/03 11:19:04;;;;;;;6.20;4.15;;;;;;;20.21;46.14;98358.78;4927762;28;20502;-70
2021/10/03 11:21:39;;;;;;;7.53;4.47;;;;;;;20.28;46.20;98372.09;4924396;29;20042;-70
2021/10/03 11:24:08;;;;;;;6.70;4.18;;;;;;;20.33;46.78;98365.41;4918750;29;20051;-70
2021/10/03 11:26:50;;;;;;;;;;;;;;;20.43;46.37;98364.84;4922614;28;20031;-69